Thursday, July 24, 2014, 2:24 AM EDT

KEZF, Fredericksburg, Shannon Airport

Location: Fredericksburg, VA, United States Lat: 38.267
Local Time: 2:24 AM EDT ( 6:24 GMT) Lon: -77.45
Time Zone: US/Eastern Elev: 85 ft

Show me the last for .
Show Decoded

2014-07-24 02:15 METAR KEZF 240615Z AUTO 30004KT 10SM CLR 25/22 A2986 RMK AO2 T02450220 =
2014-07-24 01:35 METAR KEZF 240535Z AUTO 00000KT 10SM SCT120 25/22 A2986 RMK AO2 T02500218 =
2014-07-24 01:15 METAR KEZF 240515Z AUTO 00000KT 10SM SCT120 25/22 A2986 RMK AO2 T02480221 =
2014-07-24 00:55 METAR KEZF 240455Z AUTO 00000KT 10SM SCT120 25/22 A2986 RMK AO2 T02520218 =
2014-07-24 00:35 METAR KEZF 240435Z AUTO 00000KT 10SM SCT110 25/22 A2986 RMK AO2 T02500220 =
2014-07-24 00:15 METAR KEZF 240415Z AUTO 00000KT 10SM SCT100 BKN120 25/22 A2986 RMK AO2 T02470222
                 =
2014-07-23 23:55 METAR KEZF 240355Z AUTO 00000KT 10SM SCT090 BKN120 25/22 A2986 RMK AO2 T02500223
                 =
2014-07-23 23:35 METAR KEZF 240335Z AUTO 00000KT 10SM SCT070 SCT090 25/22 A2986 RMK AO2 T02470222
                 =
2014-07-23 23:15 METAR KEZF 240315Z AUTO 11003KT 10SM SCT070 BKN100 25/22 A2986 RMK AO2 T02540220
                 =
2014-07-23 22:55 METAR KEZF 240255Z AUTO 00000KT 10SM SCT060 26/21 A2986 RMK AO2 T02620214 =
2014-07-23 22:35 METAR KEZF 240235Z AUTO 22005KT 10SM OVC060 27/21 A2987 RMK AO2 T02670209 =
2014-07-23 22:15 METAR KEZF 240215Z AUTO 23007KT 2 1/2SM HZ OVC060 27/21 A2987 RMK AO2 T02660212
                 =
2014-07-23 21:55 METAR KEZF 240155Z AUTO 00000KT 10SM BKN060 BKN080 27/23 A2986 RMK AO2 T02700229
                 =
2014-07-23 21:35 METAR KEZF 240135Z AUTO 33003KT 10SM SCT050 SCT065 SCT080 27/23 A2985 RMK AO2
                 T02740225 =
2014-07-23 20:55 METAR KEZF 240055Z AUTO 29011G15KT 10SM SCT050 BKN075 BKN085 30/23 A2984 RMK AO2
                 T02950225 =
2014-07-23 20:35 METAR KEZF 240035Z AUTO 00000KT 10SM SCT085 30/23 A2983 RMK AO2 T02950232 =
2014-07-23 20:15 METAR KEZF 240015Z AUTO 00000KT 10SM CLR 31/22 A2983 RMK AO2 T03070224 =
2014-07-23 19:55 METAR KEZF 232355Z AUTO 25003KT 10SM CLR 31/23 A2982 RMK AO2 T03050234 10355
                 20305 =
2014-07-23 19:35 METAR KEZF 232335Z AUTO 23003KT 10SM CLR 31/23 A2983 RMK AO2 T03130226 =
2014-07-23 19:15 METAR KEZF 232315Z AUTO 23004KT 10SM CLR 32/22 A2982 RMK AO2 T03220216 =
2014-07-23 18:55 METAR KEZF 232255Z AUTO 21005KT 10SM CLR 33/21 A2981 RMK AO2 T03310214 =
2014-07-23 18:35 METAR KEZF 232235Z AUTO 21005KT 10SM CLR 34/21 A2981 RMK AO2 T03440207 =
2014-07-23 18:15 METAR KEZF 232215Z AUTO 21006KT 10SM CLR 35/20 A2981 RMK AO2 T03460204 =
2014-07-23 17:55 METAR KEZF 232155Z AUTO 21006KT 10SM CLR 35/21 A2981 RMK AO2 T03450210 =
2014-07-23 17:35 METAR KEZF 232135Z AUTO 22004KT 10SM CLR 34/22 A2982 RMK AO2 T03430215 =
2014-07-23 17:15 METAR KEZF 232115Z AUTO 20003KT 10SM CLR 33/22 A2983 RMK AO2 T03300220 =
2014-07-23 16:55 METAR KEZF 232055Z AUTO 20005KT 10SM CLR 34/22 A2984 RMK AO2 T03350215 =
2014-07-23 16:35 METAR KEZF 232035Z AUTO 22006KT 10SM CLR 34/20 A2985 RMK AO2 T03400204 =
2014-07-23 16:15 METAR KEZF 232015Z AUTO 21006KT 10SM CLR 35/21 A2985 RMK AO2 T03450207 =
2014-07-23 15:35 METAR KEZF 231935Z AUTO 24006KT 10SM CLR 35/21 A2987 RMK AO2 T03510214 =
2014-07-23 15:15 METAR KEZF 231915Z AUTO 22005KT 10SM CLR 35/20 A2988 RMK AO2 T03500202 =
2014-07-23 14:55 METAR KEZF 231855Z AUTO 21004KT 10SM CLR 35/21 A2989 RMK AO2 T03490211 =
2014-07-23 14:35 METAR KEZF 231835Z AUTO 20008KT 10SM CLR 34/21 A2990 RMK AO2 T03440208 =
2014-07-23 14:15 METAR KEZF 231815Z AUTO 24004KT 10SM CLR 34/22 A2990 RMK AO2 T03410215 =
2014-07-23 13:55 METAR KEZF 231755Z AUTO 00000KT 10SM SCT042 34/21 A2991 RMK AO2 T03380208 10341
                 20240 =
2014-07-23 13:35 METAR KEZF 231735Z AUTO 19006KT 10SM SCT042 33/22 A2992 RMK AO2 T03300218 =
2014-07-23 13:15 METAR KEZF 231715Z AUTO 24003KT 10SM CLR 33/22 A2993 RMK AO2 T03320218 =
2014-07-23 12:55 METAR KEZF 231655Z AUTO 23006KT 10SM CLR 33/22 A2993 RMK AO2 T03300222 =
2014-07-23 12:35 METAR KEZF 231635Z AUTO 20004KT 10SM CLR 32/22 A2994 RMK AO2 T03220223 =
2014-07-23 12:15 METAR KEZF 231615Z AUTO 19006KT 10SM CLR 32/23 A2994 RMK AO2 T03210229 =
2014-07-23 11:55 METAR KEZF 231555Z AUTO 00000KT 10SM CLR 31/23 A2995 RMK AO2 T03100231 =
2014-07-23 11:35 METAR KEZF 231535Z AUTO 23003KT 10SM CLR 30/23 A2996 RMK AO2 T03030230 =
2014-07-23 11:15 METAR KEZF 231515Z AUTO 22006KT 10SM CLR 29/23 A2997 RMK AO2 T02940229 =
2014-07-23 10:55 METAR KEZF 231455Z AUTO 19005KT 10SM SCT080 29/23 A2998 RMK AO2 T02900226 =
2014-07-23 10:35 METAR KEZF 231435Z AUTO 20005KT 10SM SCT085 SCT090 29/23 A2999 RMK AO2 T02890226
                 =
2014-07-23 10:15 METAR KEZF 231415Z AUTO 22005KT 10SM SCT070 SCT085 SCT120 29/23 A2999 RMK AO2
                 T02880226 =
2014-07-23 09:55 METAR KEZF 231355Z AUTO 21005KT 10SM BKN070 BKN110 29/23 A3000 RMK AO2 T02860225
                 =
2014-07-23 09:35 METAR KEZF 231335Z AUTO 23006KT 10SM CLR 28/22 A3000 RMK AO2 T02820224 =
2014-07-23 09:15 METAR KEZF 231315Z AUTO 21004KT 10SM SCT080 28/22 A3000 RMK AO2 T02750223 =
2014-07-23 08:55 METAR KEZF 231255Z AUTO 24003KT 10SM CLR 27/22 A3001 RMK AO2 T02650221 =
2014-07-23 08:35 METAR KEZF 231235Z AUTO 25004KT 10SM SCT075 SCT100 26/22 A3001 RMK AO2 T02600221
                 =
2014-07-23 08:15 METAR KEZF 231215Z AUTO 00000KT 10SM SCT075 SCT090 25/23 A3001 RMK AO2 T02480229
                 =
2014-07-23 07:55 METAR KEZF 231155Z AUTO 22004KT 10SM CLR 24/23 A3001 RMK AO2 T02400229 10240
                 20219 =
2014-07-23 07:35 METAR KEZF 231135Z AUTO 00000KT 10SM CLR 23/23 A3001 RMK AO2 T02330226 =
2014-07-23 07:15 METAR KEZF 231115Z AUTO 00000KT 10SM CLR 23/22 A3001 RMK AO2 T02280223 =
2014-07-23 06:55 METAR KEZF 231055Z AUTO 00000KT 10SM CLR 23/22 A3000 RMK AO2 T02250222 =
2014-07-23 06:35 METAR KEZF 231035Z AUTO 00000KT 10SM SCT080 22/22 A3000 RMK AO2 T02230220 =
2014-07-23 06:15 METAR KEZF 231015Z AUTO 00000KT 10SM SCT080 22/22 A3000 RMK AO2 T02230220 =
2014-07-23 05:55 METAR KEZF 230955Z AUTO 19003KT 10SM CLR 22/22 A3000 RMK AO2 T02220219 =
2014-07-23 05:35 METAR KEZF 230935Z AUTO 00000KT 10SM SCT075 22/22 A3001 RMK AO2 T02220219 =
2014-07-23 05:15 METAR KEZF 230915Z AUTO 00000KT 10SM SCT075 22/22 A3001 RMK AO2 T02220217 =
2014-07-23 04:55 METAR KEZF 230855Z AUTO 00000KT 10SM CLR 22/22 A3002 RMK AO2 T02200217 PWINO =
2014-07-23 04:35 METAR KEZF 230835Z AUTO 00000KT 10SM CLR 22/22 A3002 RMK AO2 T02200215 =
2014-07-23 04:15 METAR KEZF 230815Z AUTO 00000KT 10SM CLR 22/21 A3002 RMK AO2 T02200213 =
2014-07-23 03:35 METAR KEZF 230735Z AUTO 00000KT 10SM CLR 23/21 A3003 RMK AO2 T02250210 =
2014-07-23 03:15 METAR KEZF 230715Z AUTO 00000KT 10SM CLR 23/21 A3004 RMK AO2 T02280205 =
2014-07-23 02:55 METAR KEZF 230655Z AUTO 00000KT 10SM CLR 23/21 A3004 RMK AO2 T02300205 =
2014-07-23 02:35 METAR KEZF 230635Z AUTO 00000KT 10SM CLR 23/21 A3004 RMK AO2 T02330205 =

Support USWX by starting your Amazon purchase here.